Time;durP1;ratioP1;P1;durP2;ratioP2;P2;SDS_P1;SDS_P2;PMS_P1;PMS_P2;Temp;Humidity;BMP_temperature;BMP_pressure;BME280_temperature;BME280_humidity;BME280_pressure;Samples;Min_cycle;Max_cycle;Signal;HPM_P1;HPM_P2
2022/05/11 00:01:35;;;;;;;3.20;1.37;;;19.00;99.90;;;;;;5087132;28;20169;-81
2022/05/11 00:04:02;;;;;;;2.57;1.10;;;18.90;99.90;;;;;;5086340;28;20874;-79
2022/05/11 00:06:28;;;;;;;2.27;0.90;;;18.80;99.90;;;;;;5080333;28;20234;-80
2022/05/11 00:08:57;;;;;;;2.53;1.30;;;18.70;1.00;;;;;;5075640;28;20744;-84
2022/05/11 00:11:34;;;;;;;2.90;1.27;;;18.70;1.00;;;;;;5072742;28;20712;-82
2022/05/11 00:14:00;;;;;;;4.43;1.27;;;18.80;1.00;;;;;;5073646;28;20213;-80
2022/05/11 00:16:27;;;;;;;2.83;1.50;;;18.70;1.00;;;;;;5073888;28;20561;-84
2022/05/11 00:18:53;;;;;;;1.77;1.00;;;18.60;1.00;;;;;;5074479;28;20165;-83
2022/05/11 00:21:19;;;;;;;3.93;1.40;;;18.60;1.00;;;;;;5075055;28;20506;-81
2022/05/11 00:23:46;;;;;;;2.73;1.20;;;18.60;1.00;;;;;;5076372;28;20585;-83
2022/05/11 00:26:12;;;;;;;2.33;1.13;;;18.70;1.00;;;;;;5079000;28;20164;-82
2022/05/11 00:28:38;;;;;;;3.90;1.23;;;18.60;1.00;;;;;;5076357;28;20883;-82
2022/05/11 00:31:04;;;;;;;3.30;1.60;;;18.50;1.00;;;;;;5079419;28;20193;-84
2022/05/11 00:33:30;;;;;;;2.67;1.60;;;18.50;1.00;;;;;;5076241;28;20173;-85
2022/05/11 00:35:57;;;;;;;4.00;2.20;;;18.60;1.00;;;;;;5077394;28;20532;-83
2022/05/11 00:38:26;;;;;;;4.63;2.57;;;18.80;1.00;;;;;;5077732;28;20172;-82
2022/05/11 00:40:57;;;;;;;6.03;3.33;;;18.70;1.00;;;;;;5077791;28;20157;-82
2022/05/11 00:43:38;;;;;;;5.47;2.87;;;18.70;1.00;;;;;;5077190;28;20645;-83
2022/05/11 00:46:16;;;;;;;5.70;2.53;;;18.80;1.00;;;;;;5077485;28;20176;-80
2022/05/11 00:51:34;;;;;;;3.03;1.80;;;18.60;1.00;;;;;;5078336;28;20309;-84
2022/05/11 00:54:03;;;;;;;4.93;1.70;;;18.50;1.00;;;;;;5078195;28;20165;-82
2022/05/11 00:56:29;;;;;;;4.73;1.43;;;18.50;1.00;;;;;;5087689;28;20174;-84
2022/05/11 00:59:05;;;;;;;6.00;1.83;;;18.60;1.00;;;;;;5078197;28;20201;-81
2022/05/11 01:01:32;;;;;;;4.00;1.60;;;18.60;1.00;;;;;;5076328;28;20259;-84
2022/05/11 01:04:12;;;;;;;5.10;1.67;;;18.60;1.00;;;;;;5076504;28;20206;-82
2022/05/11 01:06:40;;;;;;;4.07;1.40;;;18.60;1.00;;;;;;5076497;28;20197;-82
2022/05/11 01:09:06;;;;;;;3.17;1.50;;;18.70;1.00;;;;;;5077086;28;20237;-81
2022/05/11 01:11:37;;;;;;;4.47;1.60;;;18.70;1.00;;;;;;5076522;28;20256;-84
2022/05/11 01:14:04;;;;;;;4.03;1.53;;;18.70;1.00;;;;;;5075669;28;20169;-83
2022/05/11 01:16:30;;;;;;;2.87;1.30;;;18.60;1.00;;;;;;5074569;28;20169;-83
2022/05/11 01:18:58;;;;;;;3.17;1.30;;;18.50;1.00;;;;;;5076089;28;20251;-82
2022/05/11 01:21:35;;;;;;;3.33;1.50;;;18.60;1.00;;;;;;5075747;28;20176;-83
2022/05/11 01:24:08;;;;;;;2.53;1.40;;;18.60;1.00;;;;;;5075015;28;20196;-82
2022/05/11 01:26:33;;;;;;;3.97;1.63;;;18.60;1.00;;;;;;5076055;28;20552;-83
2022/05/11 01:29:01;;;;;;;3.10;1.50;;;18.60;1.00;;;;;;5076164;28;20254;-82
2022/05/11 01:31:28;;;;;;;3.33;1.40;;;18.60;1.00;;;;;;5075661;28;20197;-83
2022/05/11 01:33:53;;;;;;;4.27;1.50;;;18.60;1.00;;;;;;5075491;28;20192;-83
2022/05/11 01:36:27;;;;;;;3.30;1.80;;;18.60;1.00;;;;;;5076051;28;20173;-79
2022/05/11 01:38:59;;;;;;;5.40;1.93;;;18.50;1.00;;;;;;5074843;28;20246;-83
2022/05/11 01:41:43;;;;;;;4.77;1.70;;;18.40;1.00;;;;;;5079716;28;20171;-83
2022/05/11 01:44:13;;;;;;;3.50;2.00;;;18.40;1.00;;;;;;5090389;28;20177;-83
2022/05/11 01:47:20;;;;;;;3.53;1.97;;;18.40;1.00;;;;;;5077024;28;20655;-84
2022/05/11 01:49:45;;;;;;;3.43;1.70;;;18.40;1.00;;;;;;5076187;28;20204;-82
2022/05/11 01:52:12;;;;;;;2.20;1.70;;;18.50;1.00;;;;;;5075932;28;20562;-84
2022/05/11 01:54:38;;;;;;;4.53;2.13;;;18.60;1.00;;;;;;5075870;28;20696;-84
2022/05/11 01:57:04;;;;;;;3.60;1.87;;;18.50;1.00;;;;;;5075144;28;20165;-82
2022/05/11 01:59:29;;;;;;;4.93;1.70;;;18.50;1.00;;;;;;5075702;28;20623;-81
2022/05/11 02:01:55;;;;;;;7.77;1.97;;;18.50;1.00;;;;;;5074149;28;20178;-82
2022/05/11 02:09:49;;;;;;;3.63;1.60;;;18.40;1.00;;;;;;5078172;28;20299;-84
2022/05/11 02:12:16;;;;;;;6.00;2.03;;;18.40;1.00;;;;;;5075540;28;20169;-83
2022/05/11 02:14:41;;;;;;;2.93;1.70;;;18.30;1.00;;;;;;5075300;28;20645;-83
2022/05/11 02:17:07;;;;;;;3.60;1.60;;;18.30;1.00;;;;;;5074993;28;20212;-81
2022/05/11 02:19:33;;;;;;;3.60;1.87;;;18.30;1.00;;;;;;5075366;28;20586;-84
2022/05/11 02:21:59;;;;;;;3.37;1.67;;;18.30;1.00;;;;;;5077478;28;20252;-84
2022/05/11 02:24:24;;;;;;;5.20;1.93;;;18.30;1.00;;;;;;5076112;28;20637;-82
2022/05/11 02:26:50;;;;;;;5.17;1.70;;;18.20;1.00;;;;;;5089022;28;20169;-81
2022/05/11 02:29:16;;;;;;;3.77;1.50;;;18.40;1.00;;;;;;5087350;28;20211;-85
2022/05/11 02:31:41;;;;;;;4.40;1.70;;;18.30;1.00;;;;;;5083404;28;20184;-82
2022/05/11 02:34:07;;;;;;;3.17;1.70;;;18.20;1.00;;;;;;5075147;28;20183;-82
2022/05/11 02:36:34;;;;;;;5.03;1.70;;;18.10;1.00;;;;;;5073571;28;20215;-83
2022/05/11 02:39:01;;;;;;;3.73;1.60;;;18.30;1.00;;;;;;5075044;28;20655;-82
2022/05/11 02:41:26;;;;;;;3.00;1.43;;;18.30;1.00;;;;;;5074478;28;20648;-81
2022/05/11 02:43:52;;;;;;;3.47;1.60;;;18.30;1.00;;;;;;5074558;28;20176;-82
2022/05/11 02:46:18;;;;;;;5.30;1.70;;;18.10;1.00;;;;;;5074709;28;20175;-82
2022/05/11 02:48:43;;;;;;;2.20;1.43;;;18.10;1.00;;;;;;5074474;28;20212;-85
2022/05/11 02:51:09;;;;;;;4.80;1.80;;;18.00;1.00;;;;;;5074513;28;20278;-82
2022/05/11 02:53:35;;;;;;;5.07;1.87;;;18.00;1.00;;;;;;5073971;28;20177;-82
2022/05/11 02:56:02;;;;;;;5.13;1.90;;;18.00;1.00;;;;;;5073973;28;20247;-83
2022/05/11 02:58:34;;;;;;;5.13;1.60;;;18.00;1.00;;;;;;5073861;28;20226;-81
2022/05/11 03:01:01;;;;;;;4.80;1.80;;;18.00;1.00;;;;;;5073709;28;20168;-82
2022/05/11 03:03:33;;;;;;;2.70;1.70;;;17.90;1.00;;;;;;5073807;28;20599;-84
2022/05/11 03:06:00;;;;;;;3.50;1.90;;;17.90;1.00;;;;;;5074061;28;20172;-82
2022/05/11 03:08:25;;;;;;;3.47;1.90;;;17.70;1.00;;;;;;5074061;28;20176;-81
2022/05/11 03:10:51;;;;;;;4.50;2.00;;;17.70;1.00;;;;;;5074062;28;20168;-84
2022/05/11 03:13:17;;;;;;;3.50;1.90;;;17.60;1.00;;;;;;5074153;28;20255;-84
2022/05/11 03:15:43;;;;;;;3.40;1.80;;;17.40;1.00;;;;;;5073489;28;21032;-84
2022/05/11 03:18:09;;;;;;;4.00;2.00;;;17.30;1.00;;;;;;5073410;28;20177;-81
2022/05/11 03:20:35;;;;;;;7.03;1.93;;;17.30;1.00;;;;;;5074092;28;20247;-83
2022/05/11 03:23:01;;;;;;;4.37;2.37;;;17.40;1.00;;;;;;5073378;28;20247;-82
2022/05/11 03:25:27;;;;;;;3.50;2.00;;;17.40;1.00;;;;;;5074027;28;20534;-82
2022/05/11 03:27:53;;;;;;;3.90;2.00;;;17.20;1.00;;;;;;5073380;28;20252;-83
2022/05/11 03:30:20;;;;;;;5.17;2.27;;;17.30;1.00;;;;;;5073506;28;20665;-83
2022/05/11 03:35:30;;;;;;;4.20;2.23;;;17.20;1.00;;;;;;5074147;28;20235;-84
2022/05/11 03:37:56;;;;;;;4.70;2.30;;;17.30;1.00;;;;;;5077391;28;20177;-82
2022/05/11 03:40:22;;;;;;;3.40;2.10;;;17.20;1.00;;;;;;5073222;28;20174;-82
2022/05/11 03:42:49;;;;;;;3.03;2.10;;;17.10;1.00;;;;;;5083415;28;20179;-82
2022/05/11 03:45:18;;;;;;;4.17;2.13;;;17.20;1.00;;;;;;5074204;28;20173;-82
2022/05/11 03:47:48;;;;;;;4.23;2.00;;;17.20;1.00;;;;;;5072632;28;20660;-82
2022/05/11 03:50:15;;;;;;;3.23;2.00;;;17.20;1.00;;;;;;5071768;28;20645;-82
2022/05/11 03:52:41;;;;;;;3.20;1.90;;;17.10;1.00;;;;;;5073381;28;20266;-83
2022/05/11 03:55:10;;;;;;;5.00;2.43;;;17.00;1.00;;;;;;5073478;28;20247;-83
2022/05/11 03:57:37;;;;;;;3.57;2.40;;;17.00;1.00;;;;;;5071854;28;20655;-84
2022/05/11 04:00:06;;;;;;;4.40;2.47;;;17.00;1.00;;;;;;5073343;28;20210;-83
2022/05/11 04:02:33;;;;;;;5.37;2.50;;;16.90;1.00;;;;;;5073352;28;20172;-84
2022/05/11 04:04:58;;;;;;;5.23;2.47;;;16.90;1.00;;;;;;5077247;28;20187;-83
2022/05/11 04:07:24;;;;;;;3.77;2.83;;;16.80;1.00;;;;;;5093289;28;20140;-84
2022/05/11 04:09:51;;;;;;;3.80;2.40;;;16.70;1.00;;;;;;5095494;28;20212;-83
2022/05/11 04:12:17;;;;;;;6.90;2.67;;;16.60;1.00;;;;;;5094923;28;20180;-83
2022/05/11 04:14:43;;;;;;;5.00;2.60;;;16.50;1.00;;;;;;5096603;28;20231;-82
2022/05/11 04:17:10;;;;;;;4.33;2.40;;;16.50;1.00;;;;;;5096103;28;20160;-81
2022/05/11 04:19:36;;;;;;;3.70;2.30;;;16.50;1.00;;;;;;5095363;28;20231;-85
2022/05/11 04:22:02;;;;;;;4.43;2.90;;;16.50;1.00;;;;;;5082963;28;20259;-83
2022/05/11 04:24:31;;;;;;;4.03;2.53;;;16.40;1.00;;;;;;5081638;28;20294;-81
2022/05/11 04:26:58;;;;;;;4.80;2.80;;;16.50;1.00;;;;;;5077829;28;20633;-79
2022/05/11 04:29:30;;;;;;;3.40;2.50;;;16.40;1.00;;;;;;5074210;28;20735;-80
2022/05/11 04:31:57;;;;;;;4.50;3.03;;;16.40;1.00;;;;;;5073322;28;20192;-82
2022/05/11 04:34:23;;;;;;;6.43;2.67;;;16.30;1.00;;;;;;5073268;28;20179;-83
2022/05/11 04:36:51;;;;;;;4.80;2.77;;;16.20;2.80;;;;;;5073474;28;20169;-84
2022/05/11 04:39:17;;;;;;;5.40;2.83;;;16.30;1.20;;;;;;5073744;28;20176;-83
2022/05/11 04:41:43;;;;;;;6.43;2.73;;;16.30;1.40;;;;;;5073409;28;20541;-84
2022/05/11 04:44:09;;;;;;;4.47;2.70;;;16.30;1.80;;;;;;5073705;28;20171;-82
2022/05/11 04:46:36;;;;;;;5.30;2.80;;;16.40;2.20;;;;;;5073208;28;20176;-82
2022/05/11 04:49:23;;;;;;;6.00;2.97;;;16.30;2.70;;;;;;5067634;28;20227;-84
2022/05/11 04:52:00;;;;;;;4.73;2.93;;;16.30;3.50;;;;;;5083680;28;20184;-79
2022/05/11 04:54:26;;;;;;;6.97;3.10;;;16.30;7.30;;;;;;5079724;28;20228;-80
2022/05/11 04:56:52;;;;;;;6.60;3.50;;;16.40;2.40;;;;;;5058690;28;20169;-83
2022/05/11 04:59:18;;;;;;;8.67;3.53;;;16.40;2.60;;;;;;5053799;28;20165;-83
2022/05/11 05:01:45;;;;;;;6.43;3.30;;;16.40;1.50;;;;;;5053736;28;20303;-85
2022/05/11 05:04:12;;;;;;;6.50;2.80;;;16.30;4.10;;;;;;5052313;28;20645;-81
2022/05/11 05:06:38;;;;;;;6.60;3.23;;;16.30;4.20;;;;;;5054165;28;20197;-84
2022/05/11 05:09:05;;;;;;;8.30;3.50;;;16.20;7.20;;;;;;5065968;28;20204;-80
2022/05/11 05:11:32;;;;;;;5.90;2.90;;;16.30;8.70;;;;;;5066465;28;20417;-81
2022/05/11 05:13:58;;;;;;;6.77;2.90;;;16.30;10.20;;;;;;5068055;28;20169;-84
2022/05/11 05:16:23;;;;;;;5.17;2.60;;;16.20;10.60;;;;;;5061906;28;20721;-84
2022/05/11 05:18:50;;;;;;;9.37;3.30;;;16.20;9.90;;;;;;5057514;28;20254;-83
2022/05/11 05:21:16;;;;;;;5.83;3.10;;;16.20;8.80;;;;;;5056857;28;20196;-84
2022/05/11 05:23:43;;;;;;;5.97;3.10;;;16.20;8.90;;;;;;5057989;28;20204;-80
2022/05/11 05:26:08;;;;;;;6.13;2.77;;;16.40;4.60;;;;;;5073895;28;20176;-81
2022/05/11 05:31:21;;;;;;;5.97;2.80;;;16.30;3.30;;;;;;5077501;28;20241;-84
2022/05/11 05:33:47;;;;;;;7.07;3.17;;;16.20;4.80;;;;;;5077230;28;20152;-83
2022/05/11 05:36:13;;;;;;;8.03;3.00;;;16.00;10.20;;;;;;5088760;28;20716;-79
2022/05/11 05:38:39;;;;;;;6.90;3.50;;;16.10;11.60;;;;;;5098889;28;20230;-82
2022/05/11 05:41:07;;;;;;;8.37;3.10;;;16.00;13.30;;;;;;5097137;28;20180;-82
2022/05/11 05:43:34;;;;;;;8.90;2.97;;;16.00;14.30;;;;;;5099853;28;20168;-81
2022/05/11 05:46:00;;;;;;;6.67;3.00;;;15.90;12.10;;;;;;5096701;28;20188;-83
2022/05/11 05:48:29;;;;;;;8.17;3.43;;;15.90;13.70;;;;;;5088579;28;20235;-83
2022/05/11 05:51:09;;;;;;;6.60;2.90;;;16.00;15.30;;;;;;5080883;28;20180;-82
2022/05/11 05:53:36;;;;;;;10.40;3.40;;;16.10;14.50;;;;;;5075804;28;20175;-84
2022/05/11 05:56:01;;;;;;;6.10;3.07;;;16.00;13.30;;;;;;5078605;28;20173;-83
2022/05/11 05:58:27;;;;;;;8.53;3.17;;;15.90;15.90;;;;;;5077201;28;20168;-83
2022/05/11 06:00:55;;;;;;;11.83;4.03;;;16.10;15.80;;;;;;5079324;28;20179;-83
2022/05/11 06:03:24;;;;;;;11.10;3.50;;;16.00;8.60;;;;;;5079946;28;20233;-80
2022/05/11 06:05:50;;;;;;;6.97;3.43;;;16.20;5.10;;;;;;5078529;28;20220;-83
2022/05/11 06:08:16;;;;;;;10.23;2.97;;;16.20;1.00;;;;;;5080556;28;20161;-80
2022/05/11 06:10:43;;;;;;;7.13;2.50;;;16.40;1.00;;;;;;5086018;28;20228;-82
2022/05/11 06:13:10;;;;;;;10.57;2.63;;;16.30;1.00;;;;;;5097786;28;20171;-81
2022/05/11 06:15:38;;;;;;;6.13;2.10;;;16.40;1.00;;;;;;5095938;28;20183;-83
2022/05/11 06:18:09;;;;;;;7.03;2.30;;;16.30;1.00;;;;;;5096003;28;20180;-84
2022/05/11 06:20:36;;;;;;;3.90;2.20;;;16.10;1.00;;;;;;5084802;28;20183;-84
2022/05/11 06:23:03;;;;;;;7.27;2.47;;;16.20;1.00;;;;;;5077453;28;20163;-85
2022/05/11 06:25:34;;;;;;;5.03;1.80;;;16.20;1.00;;;;;;5077918;28;20172;-85
2022/05/11 06:28:01;;;;;;;6.30;2.03;;;16.30;1.00;;;;;;5081548;28;20169;-83
2022/05/11 06:30:28;;;;;;;7.07;2.23;;;16.30;1.00;;;;;;5076401;28;20203;-84
2022/05/11 06:32:55;;;;;;;7.30;1.80;;;16.30;1.00;;;;;;5077096;28;20220;-87
2022/05/11 06:35:22;;;;;;;6.40;2.00;;;16.40;1.00;;;;;;5075719;28;20196;-82
2022/05/11 06:37:50;;;;;;;8.33;2.30;;;16.50;1.00;;;;;;5079925;28;20640;-88
2022/05/11 06:40:17;;;;;;;7.20;2.13;;;16.70;1.00;;;;;;5080848;28;20164;-82
2022/05/11 06:42:43;;;;;;;5.67;1.77;;;16.70;1.00;;;;;;5078034;28;20600;-89
2022/05/11 06:45:10;;;;;;;8.63;2.13;;;16.70;1.00;;;;;;5086235;28;20252;-85
2022/05/11 06:47:38;;;;;;;5.83;2.00;;;16.70;99.90;;;;;;5091407;28;20183;-81
2022/05/11 06:50:04;;;;;;;6.10;1.70;;;16.70;99.90;;;;;;5092985;28;20233;-81
2022/05/11 06:52:30;;;;;;;5.57;1.83;;;16.70;99.90;;;;;;5088831;28;20164;-85
2022/05/11 07:00:32;;;;;;;4.70;1.27;;;16.70;1.00;;;;;;5083211;28;20241;-86
2022/05/11 07:02:58;;;;;;;4.43;1.40;;;16.70;71.40;;;;;;5078700;28;20168;-85
2022/05/11 07:05:23;;;;;;;3.43;1.60;;;16.80;14.70;;;;;;5066930;28;20728;-84
2022/05/11 07:07:52;;;;;;;4.37;1.83;;;16.70;1.00;;;;;;5072013;28;20180;-85
2022/05/11 07:10:19;;;;;;;8.77;2.17;;;16.90;1.00;;;;;;5071606;28;20310;-86
2022/05/11 07:12:48;;;;;;;3.50;1.30;;;17.10;1.00;;;;;;5061617;28;20178;-84
2022/05/11 07:15:19;;;;;;;14.57;8.30;;;17.10;99.90;;;;;;5066818;28;20248;-84
2022/05/11 07:17:56;;;;;;;5.80;2.10;;;17.30;99.90;;;;;;5070534;28;20192;-83
2022/05/11 07:20:33;;;;;;;2.97;1.07;;;17.30;1.00;;;;;;5069974;28;20181;-84
2022/05/11 07:23:01;;;;;;;4.93;1.10;;;17.30;1.00;;;;;;5087594;28;20184;-84
2022/05/11 07:25:34;;;;;;;3.87;1.30;;;17.10;45.30;;;;;;5083151;28;20175;-85
2022/05/11 07:28:01;;;;;;;3.37;1.23;;;17.00;1.00;;;;;;5081932;28;20703;-83
2022/05/11 07:30:33;;;;;;;6.53;2.33;;;17.10;99.90;;;;;;5081928;28;20247;-85
2022/05/11 07:33:01;;;;;;;4.07;1.63;;;17.20;1.00;;;;;;5063823;28;20169;-85
2022/05/11 07:35:28;;;;;;;6.83;1.70;;;17.30;1.00;;;;;;5071335;28;20185;-83
2022/05/11 07:37:54;;;;;;;5.13;1.60;;;17.40;1.00;;;;;;5065974;28;20195;-85
2022/05/11 07:40:23;;;;;;;5.67;2.03;;;17.70;1.00;;;;;;5069923;28;20173;-87
2022/05/11 07:42:50;;;;;;;10.97;2.33;;;17.80;1.00;;;;;;5067358;28;20180;-87
2022/05/11 07:45:17;;;;;;;7.17;2.23;;;17.80;1.00;;;;;;5069321;28;20193;-84
2022/05/11 07:47:44;;;;;;;9.60;2.30;;;17.80;99.90;;;;;;5057988;28;20541;-85
2022/05/11 07:50:15;;;;;;;12.40;2.70;;;17.90;99.90;;;;;;5066372;28;20765;-82
2022/05/11 07:52:43;;;;;;;10.03;2.30;;;18.00;99.90;;;;;;5059056;28;20230;-86
2022/05/11 07:55:09;;;;;;;12.03;2.77;;;18.20;17.00;;;;;;5063666;28;20253;-84
2022/05/11 08:00:21;;;;;;;14.87;6.20;;;18.40;99.90;;;;;;5063058;28;20658;-85
2022/05/11 08:02:47;;;;;;;4.77;1.47;;;18.40;1.00;;;;;;5067267;28;20172;-84
2022/05/11 08:05:14;;;;;;;9.97;2.47;;;18.60;1.00;;;;;;5079690;28;20536;-87
2022/05/11 08:07:47;;;;;;;8.37;2.07;;;18.80;99.90;;;;;;5088898;28;20183;-88
2022/05/11 08:10:19;;;;;;;5.37;1.53;;;18.70;99.90;;;;;;5090234;28;20233;-86
2022/05/11 08:12:45;;;;;;;12.53;5.97;;;18.60;99.90;;;;;;5085147;28;20184;-86
2022/05/11 08:15:13;;;;;;;3.53;1.43;;;18.40;1.00;;;;;;5080669;28;20168;-84
2022/05/11 08:17:41;;;;;;;5.80;2.17;;;18.50;1.00;;;;;;5073670;28;20187;-81
2022/05/11 08:20:14;;;;;;;13.13;2.73;;;18.60;99.90;;;;;;5063581;28;20192;-82
2022/05/11 08:22:42;;;;;;;6.03;1.70;;;18.80;1.00;;;;;;5067241;28;20179;-81
2022/05/11 08:25:10;;;;;;;8.63;2.87;;;18.80;1.00;;;;;;5070834;28;20258;-81
2022/05/11 08:27:37;;;;;;;11.67;2.63;;;18.90;99.90;;;;;;5081625;28;20227;-81
2022/05/11 08:35:34;;;;;;;9.37;2.50;;;19.40;99.90;;;;;;5070027;28;20195;-80
2022/05/11 08:38:00;;;;;;;10.20;3.00;;;19.50;45.00;;;;;;5061407;28;20177;-77
2022/05/11 08:40:43;;;;;;;6.97;2.67;;;19.60;1.00;;;;;;5078038;28;20181;-81
2022/05/11 08:43:14;;;;;;;9.87;2.63;;;19.60;1.00;;;;;;5076644;28;20180;-78
2022/05/11 08:46:13;;;;;;;11.60;2.60;;;19.40;59.20;;;;;;5072137;28;20182;-82
2022/05/11 08:48:55;;;;;;;7.47;2.30;;;19.30;1.00;;;;;;5060978;28;20185;-80
2022/05/11 08:51:32;;;;;;;12.27;2.77;;;19.30;99.90;;;;;;5061177;28;20189;-82
2022/05/11 08:54:07;;;;;;;9.10;3.03;;;19.40;99.90;;;;;;5074243;28;20298;-80
2022/05/11 08:56:34;;;;;;;3.40;1.43;;;19.60;99.90;;;;;;5076644;28;20184;-82
2022/05/11 08:59:00;;;;;;;11.43;2.90;;;19.40;1.00;;;;;;5080260;28;20178;-78
2022/05/11 09:01:37;;;;;;;11.97;2.60;;;19.10;99.90;;;;;;5073694;28;20183;-84
2022/05/11 09:04:08;;;;;;;6.10;2.73;;;19.20;1.00;;;;;;5071154;28;20203;-82
2022/05/11 09:06:37;;;;;;;7.83;2.90;;;19.20;1.00;;;;;;5075110;28;20142;-81
2022/05/11 09:09:03;;;;;;;15.67;7.80;;;19.00;1.00;;;;;;5072973;28;20189;-81
2022/05/11 09:11:39;;;;;;;5.57;2.87;;;18.80;99.90;;;;;;5077862;28;20180;-82
2022/05/11 09:14:05;;;;;;;5.90;3.20;;;19.00;1.00;;;;;;5074973;28;20196;-78
2022/05/11 09:16:43;;;;;;;6.50;2.70;;;19.00;1.00;;;;;;5094818;28;20182;-80
2022/05/11 09:19:31;;;;;;;8.27;2.60;;;19.00;1.00;;;;;;5085534;28;20259;-83
2022/05/11 09:22:10;;;;;;;11.17;3.53;;;19.10;1.00;;;;;;5079330;28;20195;-86
2022/05/11 09:24:47;;;;;;;10.33;3.00;;;19.40;1.00;;;;;;5066561;28;20188;-83
2022/05/11 09:27:24;;;;;;;8.60;3.50;;;19.60;99.90;;;;;;5062323;28;20186;-84
2022/05/11 09:30:02;;;;;;;14.83;7.37;;;19.80;1.00;;;;;;5066194;28;20210;-83
2022/05/11 09:32:37;;;;;;;15.50;5.70;;;19.80;1.00;;;;;;5065417;28;20228;-81
2022/05/11 09:35:36;;;;;;;30.50;13.60;;;19.90;1.00;;;;;;5064582;28;20155;-84
2022/05/11 09:38:30;;;;;;;8.00;2.70;;;20.00;1.00;;;;;;5067221;28;20162;-83
2022/05/11 09:40:59;;;;;;;9.00;3.50;;;20.00;88.10;;;;;;5064857;28;20150;-84
2022/05/11 09:43:38;;;;;;;12.77;3.70;;;20.10;99.90;;;;;;5072968;28;20171;-82
2022/05/11 09:46:23;;;;;;;9.90;4.97;;;20.20;30.40;;;;;;5079428;28;20162;-81
2022/05/11 09:49:19;;;;;;;7.43;2.70;;;20.40;95.50;;;;;;5079798;28;20199;-81
2022/05/11 09:51:50;;;;;;;8.50;3.20;;;20.50;1.00;;;;;;5080430;28;20179;-83
2022/05/11 09:54:38;;;;;;;12.03;3.97;;;20.60;1.00;;;;;;5088983;28;20169;-83
2022/05/11 09:57:28;;;;;;;13.47;3.77;;;20.70;72.40;;;;;;5093713;28;20163;-84
2022/05/11 10:00:37;;;;;;;12.27;3.57;;;20.70;99.90;;;;;;5080689;28;20186;-82
2022/05/11 10:03:08;;;;;;;6.53;3.00;;;20.80;1.00;;;;;;5079427;28;20185;-87
2022/05/11 10:05:49;;;;;;;5.00;2.83;;;20.70;99.90;;;;;;5080758;28;20179;-86
2022/05/11 10:08:29;;;;;;;5.80;2.37;;;20.70;99.90;;;;;;5062627;28;20182;-84
2022/05/11 10:11:06;;;;;;;10.20;3.50;;;20.10;1.00;;;;;;5080278;28;20220;-86
2022/05/11 10:13:54;;;;;;;8.93;2.97;;;20.20;1.00;;;;;;5097487;28;20208;-86
2022/05/11 10:22:45;;;;;;;8.03;3.37;;;20.60;1.00;;;;;;5098931;28;20186;-85
2022/05/11 10:25:22;;;;;;;9.33;3.23;;;20.80;1.00;;;;;;5078038;28;20166;-84
2022/05/11 10:28:02;;;;;;;6.13;3.07;;;20.80;99.90;;;;;;5074061;28;20182;-81
2022/05/11 10:30:53;;;;;;;8.07;2.67;;;20.80;1.00;;;;;;5070400;28;20275;-84
2022/05/11 10:33:58;;;;;;;8.40;3.03;;;20.80;1.00;;;;;;5069729;28;20621;-85
2022/05/11 10:37:07;;;;;;;10.90;2.90;;;20.90;99.90;;;;;;5064472;28;20215;-87
2022/05/11 10:40:11;;;;;;;7.83;2.87;;;20.90;99.90;;;;;;5061624;28;20169;-82
2022/05/11 10:42:44;;;;;;;10.03;3.00;;;21.10;20.00;;;;;;5061400;28;20160;-85
2022/05/11 10:45:20;;;;;;;7.70;3.17;;;21.20;99.90;;;;;;5062353;28;20202;-87
2022/05/11 10:47:51;;;;;;;7.90;3.03;;;21.00;1.00;;;;;;5059849;28;20278;-87
2022/05/11 10:50:31;;;;;;;8.50;3.03;;;20.90;99.90;;;;;;5057101;28;20204;-83
2022/05/11 10:53:06;;;;;;;7.97;3.00;;;21.00;99.90;;;;;;5058036;28;20194;-88
2022/05/11 10:55:56;;;;;;;6.43;3.27;;;21.10;99.90;;;;;;5056936;28;20188;-84
2022/05/11 10:59:06;;;;;;;9.47;3.27;;;20.90;1.00;;;;;;5061271;28;20202;-87
2022/05/11 11:01:51;;;;;;;7.77;3.67;;;20.70;1.00;;;;;;5059030;28;20180;-87
2022/05/11 11:04:54;;;;;;;9.13;3.60;;;20.90;99.90;;;;;;5059547;28;20171;-87
2022/05/11 11:07:41;;;;;;;9.67;3.20;;;21.20;99.90;;;;;;5058047;28;20211;-82
2022/05/11 11:10:39;;;;;;;7.67;3.07;;;21.50;1.00;;;;;;5063579;28;20271;-82
2022/05/11 11:13:04;;;;;;;6.67;3.17;;;21.50;99.90;;;;;;5071158;28;20145;-85
2022/05/11 11:15:37;;;;;;;9.40;3.57;;;21.60;58.90;;;;;;5066386;28;20172;-84
2022/05/11 11:18:06;;;;;;;7.00;2.87;;;21.70;31.60;;;;;;5091188;28;20191;-84
2022/05/11 11:20:40;;;;;;;9.30;3.37;;;21.70;99.90;;;;;;5090636;28;20187;-82
2022/05/11 11:23:33;;;;;;;10.50;3.33;;;21.80;1.00;;;;;;5070085;28;20202;-85
2022/05/11 11:26:06;;;;;;;13.17;3.60;;;22.00;1.00;;;;;;5089983;28;20149;-84
2022/05/11 11:28:55;;;;;;;9.23;3.43;;;22.20;99.90;;;;;;5098182;28;20187;-83
2022/05/11 11:31:26;;;;;;;6.57;2.70;;;22.40;1.00;;;;;;5090355;28;20298;-84
2022/05/11 11:33:54;;;;;;;7.67;2.70;;;22.40;1.00;;;;;;5072580;28;20214;-86
2022/05/11 11:37:12;;;;;;;8.93;3.00;;;22.60;99.90;;;;;;5085130;28;20199;-85
2022/05/11 11:40:14;;;;;;;8.50;3.30;;;22.80;25.60;;;;;;5085656;28;20167;-88
2022/05/11 11:42:43;;;;;;;9.10;3.57;;;22.60;1.00;;;;;;5086271;28;20169;-85
2022/05/11 11:45:32;;;;;;;5.00;2.50;;;22.50;99.90;;;;;;5077915;28;20233;-84
2022/05/11 11:48:24;;;;;;;6.97;2.60;;;22.10;99.90;;;;;;5083383;28;20164;-85
2022/05/11 11:50:58;;;;;;;13.57;3.87;;;22.00;99.90;;;;;;5066470;28;20209;-84
2022/05/11 11:53:40;;;;;;;6.10;2.70;;;22.10;99.90;;;;;;5046812;28;20520;-87
2022/05/11 11:56:28;;;;;;;11.97;3.70;;;22.20;99.90;;;;;;5083674;28;20180;-80
2022/05/11 11:59:10;;;;;;;10.53;3.07;;;22.40;1.00;;;;;;5079390;28;20182;-84
2022/05/11 12:01:43;;;;;;;5.90;2.67;;;22.40;1.00;;;;;;5078968;28;20192;-84
2022/05/11 12:04:27;;;;;;;14.00;3.73;;;22.20;1.00;;;;;;5077924;28;20381;-80
2022/05/11 12:15:33;;;;;;;11.13;3.60;;;22.40;1.00;;;;;;5092894;28;20168;-83
2022/05/11 12:18:01;;;;;;;10.33;3.43;;;22.50;1.00;;;;;;5100599;28;20231;-85
2022/05/11 12:20:43;;;;;;;11.90;3.40;;;22.70;99.90;;;;;;5088845;28;20170;-83
2022/05/11 12:24:02;;;;;;;25.70;3.83;;;22.90;1.00;;;;;;5086180;28;20171;-80
2022/05/11 12:26:41;;;;;;;11.47;3.43;;;23.10;99.90;;;;;;5077183;28;20189;-79
2022/05/11 12:32:24;;;;;;;11.77;3.40;;;23.20;99.90;;;;;;5071900;28;20243;-81
2022/05/11 12:34:51;;;;;;;8.27;3.20;;;23.20;17.90;;;;;;5070825;28;20171;-80
2022/05/11 12:37:27;;;;;;;6.70;2.50;;;23.20;81.80;;;;;;5078053;28;20209;-85
2022/05/11 12:40:01;;;;;;;15.70;3.37;;;22.80;99.90;;;;;;5091251;28;20191;-84
2022/05/11 12:42:40;;;;;;;7.40;3.00;;;22.70;1.00;;;;;;5086021;28;20180;-86
2022/05/11 12:45:19;;;;;;;14.57;4.07;;;22.50;99.90;;;;;;5090936;28;20170;-85
2022/05/11 12:47:53;;;;;;;10.27;2.80;;;22.50;99.90;;;;;;5079815;28;20173;-88
2022/05/11 12:50:33;;;;;;;13.33;4.43;;;22.80;1.00;;;;;;5069137;28;20306;-89
2022/05/11 12:53:15;;;;;;;10.30;3.43;;;23.00;1.00;;;;;;5068822;28;20195;-82
2022/05/11 12:55:46;;;;;;;8.23;3.10;;;23.00;1.00;;;;;;5079201;28;20175;-81
2022/05/11 12:58:27;;;;;;;9.87;3.10;;;23.10;1.00;;;;;;5088478;28;20180;-81
2022/05/11 13:00:59;;;;;;;6.07;2.90;;;23.30;99.90;;;;;;5087929;28;20181;-82
2022/05/11 13:03:30;;;;;;;11.57;3.83;;;23.30;99.90;;;;;;5089108;28;20162;-86
2022/05/11 13:06:03;;;;;;;11.27;2.90;;;23.30;99.90;;;;;;5088559;28;20163;-83
2022/05/11 13:08:37;;;;;;;8.03;3.23;;;23.30;1.00;;;;;;5068411;28;20175;-86
2022/05/11 13:11:07;;;;;;;6.93;2.80;;;23.20;1.00;;;;;;5069081;28;20176;-82
2022/05/11 13:13:43;;;;;;;6.03;2.23;;;23.30;1.00;;;;;;5070941;28;20159;-87
2022/05/11 13:16:16;;;;;;;5.77;3.13;;;23.20;99.90;;;;;;5066682;28;20519;-83
2022/05/11 13:18:48;;;;;;;3.77;2.33;;;23.20;99.90;;;;;;5065185;28;20178;-84
2022/05/11 13:21:32;;;;;;;7.30;3.17;;;23.30;99.90;;;;;;5065112;28;20246;-85
2022/05/11 13:23:58;;;;;;;8.93;2.83;;;23.40;55.80;;;;;;5064203;28;20175;-85
2022/05/11 13:26:41;;;;;;;7.47;2.90;;;23.60;1.00;;;;;;5064978;28;20262;-83
2022/05/11 13:29:27;;;;;;;6.17;2.63;;;23.80;1.00;;;;;;5063844;28;20566;-82
2022/05/11 13:32:09;;;;;;;6.03;2.43;;;23.90;99.90;;;;;;5075561;28;20613;-85
2022/05/11 13:34:41;;;;;;;9.57;3.03;;;23.70;99.90;;;;;;5080051;28;20228;-82
2022/05/11 13:37:32;;;;;;;10.93;3.20;;;23.70;1.00;;;;;;5082450;28;20175;-85
2022/05/11 13:39:58;;;;;;;7.70;2.77;;;23.70;1.00;;;;;;5080638;28;20546;-85
2022/05/11 13:42:28;;;;;;;5.50;2.80;;;23.90;1.00;;;;;;5079825;28;20215;-82
2022/05/11 13:45:04;;;;;;;6.90;2.97;;;24.00;1.00;;;;;;5074249;28;20218;-83
2022/05/11 13:50:42;;;;;;;16.47;3.47;;;24.30;99.90;;;;;;5072515;28;20226;-80
2022/05/11 13:53:11;;;;;;;9.33;2.90;;;24.20;1.00;;;;;;5068035;28;20175;-83
2022/05/11 13:56:14;;;;;;;10.53;3.27;;;24.20;1.00;;;;;;5088000;28;20187;-81
2022/05/11 13:58:44;;;;;;;12.83;3.67;;;24.40;99.90;;;;;;5093167;28;20179;-82
2022/05/11 14:01:25;;;;;;;4.33;2.17;;;24.50;99.90;;;;;;5096291;28;20179;-80
2022/05/11 14:03:58;;;;;;;18.53;4.27;;;24.50;99.90;;;;;;5093125;28;20213;-83
2022/05/11 14:09:46;;;;;;;8.87;2.93;;;24.50;99.90;;;;;;5070330;28;20296;-85
2022/05/11 14:12:12;;;;;;;12.80;3.60;;;24.70;99.90;;;;;;5064638;28;20169;-86